Terminal Aerodrome Forecast
Issued by NWS Rapid City, SD

Home | Current Version | Previous Version | Text Only | Print | Product List | Glossary On
Versions: 1 2 3 4 5 6 7 8 9 10 11 12 13 14 15 16 17 18 19 20 21 22 23
000
FTUS43 KUNR 231100
TAFRAP
TAF
KRAP 231131Z 2312/2412 20007KT P6SM -SHRA SCT060 BKN110
     FM231500 16009KT P6SM SCT015 BKN050
     FM231800 19010KT P6SM BKN050
     FM232100 34009KT P6SM SCT050 BKN100
     FM240300 33015G25KT P6SM SCT250=

USA.gov is the U.S. government's official web portal to all federal, state and local government web resources and services.